createdAt,value
2023-05-10T00:01:44.745Z,8.50
2023-05-10T00:11:48.329Z,7.70
2023-05-10T00:21:51.874Z,7.80
2023-05-10T00:31:55.395Z,8.20
2023-05-10T00:41:58.996Z,9.50
2023-05-10T00:52:04.343Z,7.40
2023-05-10T01:03:11.107Z,7.20
2023-05-10T01:13:20.100Z,7.30
2023-05-10T01:23:46.602Z,7.40
2023-05-10T01:34:17.647Z,7.30
2023-05-10T01:44:42.758Z,7.20
2023-05-10T01:54:53.287Z,7.60
2023-05-10T02:05:59.047Z,7.50
2023-05-10T02:16:06.415Z,7.80
2023-05-10T02:26:11.595Z,7.60
2023-05-10T02:36:16.727Z,7.90
2023-05-10T02:46:20.485Z,7.90
2023-05-10T02:57:27.913Z,8.30
2023-05-10T03:07:31.563Z,7.80
2023-05-10T03:17:48.683Z,7.80
2023-05-10T03:28:04.946Z,7.30
2023-05-10T03:38:31.072Z,7.70
2023-05-10T03:48:42.840Z,8.00
2023-05-10T03:59:27.020Z,6.60
2023-05-10T04:09:30.834Z,6.10
2023-05-10T04:19:34.528Z,4.80
2023-05-10T04:29:38.179Z,4.40
2023-05-10T04:39:42.506Z,4.20
2023-05-10T04:50:08.841Z,3.10
2023-05-10T05:00:13.399Z,3.10
2023-05-10T05:11:17.796Z,2.70
2023-05-10T05:21:21.479Z,5.30
2023-05-10T05:31:25.262Z,4.50
2023-05-10T05:41:28.774Z,4.90
2023-05-10T05:51:32.460Z,4.90
2023-05-10T06:01:36.844Z,4.50
2023-05-10T06:11:40.384Z,4.90
2023-05-10T06:21:46.666Z,4.50
2023-05-10T06:31:50.356Z,4.50
2023-05-10T06:41:54.068Z,5.30
2023-05-10T06:51:57.727Z,4.30
2023-05-10T07:02:02.918Z,4.10
2023-05-10T07:12:08.232Z,4.10
2023-05-10T07:22:14.176Z,4.00
2023-05-10T07:32:17.722Z,4.60
2023-05-10T07:42:22.837Z,3.90
2023-05-10T07:52:26.661Z,3.50
2023-05-10T08:03:30.928Z,4.10
2023-05-10T08:13:35.317Z,3.80
2023-05-10T08:23:38.798Z,3.40
2023-05-10T08:33:50.579Z,3.80
2023-05-10T08:43:55.190Z,3.70
2023-05-10T08:54:21.070Z,3.40
2023-05-10T09:04:24.749Z,4.30
2023-05-10T09:14:28.848Z,3.30
2023-05-10T09:24:32.331Z,3.10
2023-05-10T09:34:41.368Z,3.00
2023-05-10T09:44:47.441Z,2.90
2023-05-10T09:55:35.265Z,3.20
2023-05-10T10:05:41.914Z,3.40
2023-05-10T10:15:46.039Z,3.10
2023-05-10T10:25:50.718Z,3.00
2023-05-10T10:35:55.745Z,4.00
2023-05-10T10:46:18.406Z,3.20
2023-05-10T10:57:03.233Z,3.60
2023-05-10T11:07:52.307Z,3.20
2023-05-10T11:17:57.056Z,3.40
2023-05-10T11:28:05.855Z,3.50
2023-05-10T11:38:29.659Z,3.60
2023-05-10T11:48:34.673Z,3.20
2023-05-10T11:58:40.254Z,2.90
2023-05-10T12:09:08.412Z,3.70
2023-05-10T12:19:12.669Z,2.80
2023-05-10T12:29:18.916Z,3.20
2023-05-10T12:39:22.652Z,2.70
2023-05-10T12:49:26.176Z,2.90
2023-05-10T12:59:50.311Z,2.90
2023-05-10T13:09:55.631Z,3.10
2023-05-10T13:19:59.222Z,2.50
2023-05-10T13:30:06.357Z,2.70
2023-05-10T13:40:10.159Z,2.70
2023-05-10T13:50:13.785Z,2.80
2023-05-10T14:00:18.032Z,2.80
2023-05-10T14:10:21.709Z,2.70
2023-05-10T14:20:25.547Z,2.50
2023-05-10T14:30:29.266Z,3.20
2023-05-10T14:40:33.017Z,2.70
2023-05-10T14:50:37.530Z,2.60
2023-05-10T15:00:44.276Z,2.90
2023-05-10T15:10:48.955Z,3.00
2023-05-10T15:21:53.420Z,2.90
2023-05-10T15:31:57.052Z,3.40
2023-05-10T15:42:00.804Z,3.30
2023-05-10T15:52:04.429Z,2.80
2023-05-10T16:02:48.915Z,2.80
2023-05-10T16:12:54.291Z,3.30
2023-05-10T16:23:59.832Z,2.90
2023-05-10T16:34:03.715Z,3.30
2023-05-10T16:44:07.357Z,3.60
2023-05-10T16:54:11.120Z,3.40
2023-05-10T17:04:15.509Z,4.70
2023-05-10T17:14:19.511Z,4.00
2023-05-10T17:24:23.121Z,4.20
2023-05-10T17:34:26.790Z,3.50
2023-05-10T17:45:31.196Z,4.20
2023-05-10T17:55:35.179Z,3.80
2023-05-10T18:05:39.969Z,9.30
2023-05-10T18:16:25.246Z,10.70
2023-05-10T18:26:29.575Z,17.20
2023-05-10T18:37:14.449Z,16.80
2023-05-10T18:48:23.708Z,15.00
2023-05-10T18:59:35.298Z,11.30
2023-05-10T19:09:38.908Z,8.30
2023-05-10T19:19:43.620Z,8.10
2023-05-10T20:04:46.755Z,5.40
2023-05-10T20:26:41.762Z,5.90
2023-05-10T20:51:03.698Z,8.60
2023-05-10T21:15:00.319Z,6.10
2023-05-10T22:29:46.852Z,8.70
2023-05-10T22:40:13.824Z,7.60
2023-05-10T22:50:28.435Z,7.40
2023-05-10T23:00:45.503Z,7.90
2023-05-10T23:11:05.842Z,6.70
2023-05-10T23:21:40.094Z,6.30
2023-05-10T23:32:30.334Z,5.90
2023-05-10T23:54:55.649Z,5.80
